Island Park, ID

9:06 PM MDT on April 26, 2017 (GMT -0600)
MISPI1 | | Change Station

Elev 6287 ft 44.42 °N, 111.39 °W | Updated 1 day ago

Rain
Rain
45.0 °F
Feels Like 45.0 °F
N
-
Wind Variable Wind from North

Today
High -- | Low -- °F
--% Chance of Precip.
Yesterday
High -- | Low -- °F
Precip. -- in
Pressure 29.65 in
Visibility 1.8 miles
Clouds Overcast 300 ft
Dew Point Not available.
Humidity Not available.
Rainfall 0.30 in
Snow Depth Not available.
6:23 AM 8:24 PM
New Moon, 1% visible
METAR KWYS 270250Z AUTO 22005KT 1 3/4SM -SN OVC003 00/00 A2965 RMK AO2
Pressure 29.65 in
Visibility 1.8 miles
Clouds Overcast 300 ft
Dew Point Not available.
Humidity Not available.
Rainfall 0.30 in
Snow Depth Not available.
6:23 AM 8:24 PM
New Moon, 1% visible
METAR KWYS 270250Z AUTO 22005KT 1 3/4SM -SN OVC003 00/00 A2965 RMK AO2

Get Severe Weather Alerts

Thanks for signing up!

Be on the lookout for a verification email in your inbox.

You'll start receiving the daily forecast at 8 AM.

×

10-Day Weather Forecast

Almanac

Astronomy

Apr. 26, 2017 Rise Set
Actual Time
Civil Twilight
Nautical Twilight
Astronomical Twilight
Moon
Length of Visible Light
Length of Day
Tomorrow will be .
, % of the Moon is Illuminated

Today's Extremes

State Highs State Lows

Community

WunderPhotos

WunderBlog® & News

Nearby

Air Quality

  Air Quality AQ Index Pollutant
Not available.

Snow Depth

Station Depth Elevation

Earthquake Activity

City Distance Mag. Time & Date
Minimum magnitude displayed is 2.5.

Coastal Water Temperatures

Place Temperature

Stations

Nearby Weather Stations

Station Location Temp. Windchill Dew Point Humidity Wind Precip. Elev Updated Type
                   

Watches & Warnings

There are currently no watches in effect.